sensor_id;sensor_type;location;lat;lon;timestamp;P1;durP1;ratioP1;P2;durP2;ratioP2
34204;SDS011;20471;49.680;20.074;2022-08-07T00:01:47;6.03;;;5.42;;
34204;SDS011;20471;49.680;20.074;2022-08-07T00:04:13;6.55;;;5.05;;
34204;SDS011;20471;49.680;20.074;2022-08-07T00:06:39;6.25;;;4.55;;
34204;SDS011;20471;49.680;20.074;2022-08-07T00:09:06;8.03;;;4.55;;
34204;SDS011;20471;49.680;20.074;2022-08-07T00:11:33;7.10;;;4.67;;
34204;SDS011;20471;49.680;20.074;2022-08-07T00:13:59;7.12;;;4.78;;
34204;SDS011;20471;49.680;20.074;2022-08-07T00:16:26;5.05;;;4.28;;
34204;SDS011;20471;49.680;20.074;2022-08-07T00:18:52;6.10;;;4.30;;
34204;SDS011;20471;49.680;20.074;2022-08-07T00:21:18;6.08;;;4.20;;
34204;SDS011;20471;49.680;20.074;2022-08-07T00:23:46;5.58;;;3.80;;
34204;SDS011;20471;49.680;20.074;2022-08-07T00:26:12;4.42;;;4.03;;
34204;SDS011;20471;49.680;20.074;2022-08-07T00:28:39;8.05;;;3.67;;
34204;SDS011;20471;49.680;20.074;2022-08-07T00:31:08;5.47;;;3.72;;
34204;SDS011;20471;49.680;20.074;2022-08-07T00:33:37;5.78;;;4.50;;
34204;SDS011;20471;49.680;20.074;2022-08-07T00:36:05;4.62;;;3.67;;
34204;SDS011;20471;49.680;20.074;2022-08-07T00:38:33;4.85;;;3.83;;
34204;SDS011;20471;49.680;20.074;2022-08-07T00:41:01;3.98;;;3.65;;
34204;SDS011;20471;49.680;20.074;2022-08-07T00:43:29;4.22;;;3.37;;
34204;SDS011;20471;49.680;20.074;2022-08-07T00:45:57;4.05;;;3.25;;
34204;SDS011;20471;49.680;20.074;2022-08-07T00:48:25;4.92;;;3.40;;
34204;SDS011;20471;49.680;20.074;2022-08-07T00:50:53;3.75;;;3.30;;
34204;SDS011;20471;49.680;20.074;2022-08-07T00:53:20;6.45;;;3.70;;
34204;SDS011;20471;49.680;20.074;2022-08-07T00:55:47;7.45;;;4.00;;
34204;SDS011;20471;49.680;20.074;2022-08-07T00:58:14;6.72;;;4.05;;
34204;SDS011;20471;49.680;20.074;2022-08-07T01:00:41;5.87;;;3.85;;
34204;SDS011;20471;49.680;20.074;2022-08-07T01:03:07;4.60;;;3.08;;
34204;SDS011;20471;49.680;20.074;2022-08-07T01:05:35;6.70;;;3.08;;
34204;SDS011;20471;49.680;20.074;2022-08-07T01:08:02;6.62;;;3.12;;
34204;SDS011;20471;49.680;20.074;2022-08-07T01:10:29;9.78;;;3.30;;
34204;SDS011;20471;49.680;20.074;2022-08-07T01:12:56;6.00;;;3.50;;
34204;SDS011;20471;49.680;20.074;2022-08-07T01:15:23;5.92;;;3.35;;
34204;SDS011;20471;49.680;20.074;2022-08-07T01:17:50;5.17;;;3.00;;
34204;SDS011;20471;49.680;20.074;2022-08-07T01:20:17;6.70;;;3.17;;
34204;SDS011;20471;49.680;20.074;2022-08-07T01:22:47;7.80;;;3.15;;
34204;SDS011;20471;49.680;20.074;2022-08-07T01:25:14;6.40;;;3.50;;
34204;SDS011;20471;49.680;20.074;2022-08-07T01:27:41;5.80;;;3.45;;
34204;SDS011;20471;49.680;20.074;2022-08-07T01:30:08;5.58;;;3.20;;
34204;SDS011;20471;49.680;20.074;2022-08-07T01:32:36;9.23;;;4.08;;
34204;SDS011;20471;49.680;20.074;2022-08-07T01:35:02;4.10;;;3.70;;
34204;SDS011;20471;49.680;20.074;2022-08-07T01:37:30;3.95;;;3.40;;
34204;SDS011;20471;49.680;20.074;2022-08-07T01:39:57;5.37;;;3.20;;
34204;SDS011;20471;49.680;20.074;2022-08-07T01:42:25;6.17;;;3.80;;
34204;SDS011;20471;49.680;20.074;2022-08-07T01:44:52;5.05;;;3.15;;
34204;SDS011;20471;49.680;20.074;2022-08-07T01:47:19;3.45;;;2.80;;
34204;SDS011;20471;49.680;20.074;2022-08-07T01:49:46;7.45;;;3.08;;
34204;SDS011;20471;49.680;20.074;2022-08-07T01:52:13;6.05;;;3.33;;
34204;SDS011;20471;49.680;20.074;2022-08-07T01:54:39;6.47;;;3.85;;
34204;SDS011;20471;49.680;20.074;2022-08-07T01:57:18;4.60;;;3.90;;
34204;SDS011;20471;49.680;20.074;2022-08-07T02:05:26;7.90;;;4.33;;
34204;SDS011;20471;49.680;20.074;2022-08-07T02:08:00;7.95;;;4.92;;
34204;SDS011;20471;49.680;20.074;2022-08-07T02:10:30;4.70;;;4.15;;
34204;SDS011;20471;49.680;20.074;2022-08-07T02:12:59;7.87;;;4.50;;
34204;SDS011;20471;49.680;20.074;2022-08-07T02:15:28;6.55;;;4.22;;
34204;SDS011;20471;49.680;20.074;2022-08-07T02:17:56;7.60;;;4.42;;
34204;SDS011;20471;49.680;20.074;2022-08-07T02:20:24;7.70;;;4.42;;
34204;SDS011;20471;49.680;20.074;2022-08-07T02:22:56;5.95;;;4.42;;
34204;SDS011;20471;49.680;20.074;2022-08-07T02:25:26;5.90;;;4.20;;
34204;SDS011;20471;49.680;20.074;2022-08-07T02:27:56;6.28;;;4.50;;
34204;SDS011;20471;49.680;20.074;2022-08-07T02:30:25;7.90;;;4.65;;
34204;SDS011;20471;49.680;20.074;2022-08-07T02:32:54;9.20;;;5.17;;
34204;SDS011;20471;49.680;20.074;2022-08-07T02:35:23;7.45;;;5.10;;
34204;SDS011;20471;49.680;20.074;2022-08-07T02:37:50;7.80;;;5.33;;
34204;SDS011;20471;49.680;20.074;2022-08-07T02:40:18;7.80;;;5.05;;
34204;SDS011;20471;49.680;20.074;2022-08-07T02:42:44;4.45;;;4.05;;
34204;SDS011;20471;49.680;20.074;2022-08-07T02:45:12;9.43;;;4.60;;
34204;SDS011;20471;49.680;20.074;2022-08-07T02:47:42;5.70;;;4.70;;
34204;SDS011;20471;49.680;20.074;2022-08-07T02:50:08;4.40;;;4.00;;
34204;SDS011;20471;49.680;20.074;2022-08-07T02:52:40;7.25;;;4.42;;
34204;SDS011;20471;49.680;20.074;2022-08-07T02:55:14;7.80;;;3.98;;
34204;SDS011;20471;49.680;20.074;2022-08-07T02:57:47;6.35;;;4.12;;
34204;SDS011;20471;49.680;20.074;2022-08-07T03:00:16;8.75;;;4.55;;
34204;SDS011;20471;49.680;20.074;2022-08-07T03:02:45;7.25;;;4.62;;
34204;SDS011;20471;49.680;20.074;2022-08-07T03:05:14;8.40;;;3.95;;
34204;SDS011;20471;49.680;20.074;2022-08-07T03:07:42;4.80;;;4.40;;
34204;SDS011;20471;49.680;20.074;2022-08-07T03:10:09;4.67;;;3.62;;
34204;SDS011;20471;49.680;20.074;2022-08-07T03:12:37;5.37;;;3.90;;
34204;SDS011;20471;49.680;20.074;2022-08-07T03:15:05;6.67;;;4.80;;
34204;SDS011;20471;49.680;20.074;2022-08-07T03:17:33;7.35;;;4.40;;
34204;SDS011;20471;49.680;20.074;2022-08-07T03:20:02;8.40;;;4.95;;
34204;SDS011;20471;49.680;20.074;2022-08-07T03:22:30;8.88;;;5.37;;
34204;SDS011;20471;49.680;20.074;2022-08-07T03:24:58;10.63;;;4.80;;
34204;SDS011;20471;49.680;20.074;2022-08-07T03:27:25;9.80;;;4.28;;
34204;SDS011;20471;49.680;20.074;2022-08-07T03:29:53;6.03;;;4.83;;
34204;SDS011;20471;49.680;20.074;2022-08-07T03:32:23;12.58;;;4.80;;
34204;SDS011;20471;49.680;20.074;2022-08-07T03:34:52;9.10;;;4.70;;
34204;SDS011;20471;49.680;20.074;2022-08-07T03:37:22;7.72;;;4.72;;
34204;SDS011;20471;49.680;20.074;2022-08-07T03:39:50;10.80;;;5.28;;
34204;SDS011;20471;49.680;20.074;2022-08-07T03:42:18;8.60;;;4.83;;
34204;SDS011;20471;49.680;20.074;2022-08-07T03:44:45;6.90;;;4.50;;
34204;SDS011;20471;49.680;20.074;2022-08-07T03:47:12;9.43;;;4.97;;
34204;SDS011;20471;49.680;20.074;2022-08-07T03:49:41;6.42;;;4.55;;
34204;SDS011;20471;49.680;20.074;2022-08-07T03:52:08;10.25;;;6.20;;
34204;SDS011;20471;49.680;20.074;2022-08-07T03:54:36;7.50;;;4.67;;
34204;SDS011;20471;49.680;20.074;2022-08-07T03:57:03;8.73;;;5.25;;
34204;SDS011;20471;49.680;20.074;2022-08-07T03:59:31;6.55;;;4.25;;
34204;SDS011;20471;49.680;20.074;2022-08-07T04:01:58;9.78;;;4.28;;
34204;SDS011;20471;49.680;20.074;2022-08-07T04:04:25;5.33;;;3.40;;
34204;SDS011;20471;49.680;20.074;2022-08-07T04:06:51;3.90;;;3.40;;
34204;SDS011;20471;49.680;20.074;2022-08-07T04:09:18;6.05;;;3.72;;
34204;SDS011;20471;49.680;20.074;2022-08-07T04:11:46;5.25;;;4.03;;
34204;SDS011;20471;49.680;20.074;2022-08-07T04:14:15;9.93;;;5.37;;
34204;SDS011;20471;49.680;20.074;2022-08-07T04:16:42;7.47;;;4.47;;
34204;SDS011;20471;49.680;20.074;2022-08-07T04:19:08;5.22;;;3.30;;
34204;SDS011;20471;49.680;20.074;2022-08-07T04:21:35;9.45;;;3.50;;
34204;SDS011;20471;49.680;20.074;2022-08-07T04:24:02;3.67;;;3.20;;
34204;SDS011;20471;49.680;20.074;2022-08-07T04:26:30;4.50;;;3.17;;
34204;SDS011;20471;49.680;20.074;2022-08-07T04:28:57;5.17;;;2.98;;
34204;SDS011;20471;49.680;20.074;2022-08-07T04:31:23;7.67;;;3.58;;
34204;SDS011;20471;49.680;20.074;2022-08-07T04:33:51;3.67;;;3.30;;
34204;SDS011;20471;49.680;20.074;2022-08-07T04:36:17;6.95;;;3.62;;
34204;SDS011;20471;49.680;20.074;2022-08-07T04:38:44;7.00;;;3.30;;
34204;SDS011;20471;49.680;20.074;2022-08-07T04:41:10;7.22;;;4.22;;
34204;SDS011;20471;49.680;20.074;2022-08-07T04:43:37;5.70;;;3.42;;
34204;SDS011;20471;49.680;20.074;2022-08-07T04:46:11;5.22;;;3.30;;
34204;SDS011;20471;49.680;20.074;2022-08-07T04:59:57;7.25;;;3.10;;
34204;SDS011;20471;49.680;20.074;2022-08-07T05:02:41;6.15;;;2.83;;
34204;SDS011;20471;49.680;20.074;2022-08-07T05:05:24;4.00;;;2.90;;
34204;SDS011;20471;49.680;20.074;2022-08-07T05:08:05;7.17;;;2.95;;
34204;SDS011;20471;49.680;20.074;2022-08-07T05:10:42;4.92;;;2.70;;
34204;SDS011;20471;49.680;20.074;2022-08-07T05:13:25;6.15;;;2.55;;
34204;SDS011;20471;49.680;20.074;2022-08-07T05:16:02;6.58;;;2.80;;
34204;SDS011;20471;49.680;20.074;2022-08-07T05:18:34;4.90;;;2.70;;
34204;SDS011;20471;49.680;20.074;2022-08-07T05:21:06;4.75;;;2.37;;
34204;SDS011;20471;49.680;20.074;2022-08-07T05:23:37;8.65;;;2.65;;
34204;SDS011;20471;49.680;20.074;2022-08-07T05:26:24;5.83;;;2.60;;
34204;SDS011;20471;49.680;20.074;2022-08-07T05:28:55;3.42;;;2.58;;
34204;SDS011;20471;49.680;20.074;2022-08-07T05:31:25;4.37;;;2.65;;
34204;SDS011;20471;49.680;20.074;2022-08-07T05:33:58;4.42;;;2.50;;
34204;SDS011;20471;49.680;20.074;2022-08-07T05:36:27;6.67;;;2.40;;
34204;SDS011;20471;49.680;20.074;2022-08-07T05:38:56;5.78;;;2.85;;
34204;SDS011;20471;49.680;20.074;2022-08-07T05:41:23;3.50;;;2.35;;
34204;SDS011;20471;49.680;20.074;2022-08-07T05:43:52;4.10;;;2.40;;
34204;SDS011;20471;49.680;20.074;2022-08-07T05:46:20;3.40;;;2.30;;
34204;SDS011;20471;49.680;20.074;2022-08-07T05:48:48;4.10;;;2.37;;
34204;SDS011;20471;49.680;20.074;2022-08-07T05:51:17;2.65;;;2.40;;
34204;SDS011;20471;49.680;20.074;2022-08-07T05:53:44;4.62;;;2.35;;
34204;SDS011;20471;49.680;20.074;2022-08-07T05:56:12;3.45;;;2.33;;
34204;SDS011;20471;49.680;20.074;2022-08-07T05:58:40;6.10;;;2.75;;
34204;SDS011;20471;49.680;20.074;2022-08-07T06:01:09;3.25;;;2.45;;
34204;SDS011;20471;49.680;20.074;2022-08-07T06:03:37;4.65;;;2.40;;
34204;SDS011;20471;49.680;20.074;2022-08-07T06:06:05;6.08;;;2.40;;
34204;SDS011;20471;49.680;20.074;2022-08-07T06:08:33;6.33;;;2.42;;
34204;SDS011;20471;49.680;20.074;2022-08-07T06:10:59;3.45;;;1.80;;
34204;SDS011;20471;49.680;20.074;2022-08-07T06:13:26;4.12;;;2.12;;
34204;SDS011;20471;49.680;20.074;2022-08-07T06:15:53;3.98;;;2.08;;
34204;SDS011;20471;49.680;20.074;2022-08-07T06:18:20;4.60;;;2.60;;
34204;SDS011;20471;49.680;20.074;2022-08-07T06:20:48;4.12;;;2.25;;
34204;SDS011;20471;49.680;20.074;2022-08-07T06:23:15;7.62;;;2.27;;
34204;SDS011;20471;49.680;20.074;2022-08-07T06:25:42;5.78;;;2.17;;
34204;SDS011;20471;49.680;20.074;2022-08-07T06:28:09;4.03;;;2.10;;
34204;SDS011;20471;49.680;20.074;2022-08-07T06:30:36;5.50;;;2.17;;
34204;SDS011;20471;49.680;20.074;2022-08-07T06:33:05;4.05;;;2.52;;
34204;SDS011;20471;49.680;20.074;2022-08-07T06:35:33;4.58;;;1.85;;
34204;SDS011;20471;49.680;20.074;2022-08-07T06:38:02;3.80;;;2.10;;
34204;SDS011;20471;49.680;20.074;2022-08-07T06:40:29;2.77;;;1.90;;
34204;SDS011;20471;49.680;20.074;2022-08-07T06:43:00;4.72;;;1.65;;
34204;SDS011;20471;49.680;20.074;2022-08-07T06:45:30;3.72;;;1.75;;
34204;SDS011;20471;49.680;20.074;2022-08-07T06:47:58;5.80;;;1.77;;
34204;SDS011;20471;49.680;20.074;2022-08-07T06:50:26;3.87;;;1.30;;
34204;SDS011;20471;49.680;20.074;2022-08-07T06:52:54;2.47;;;1.30;;
34204;SDS011;20471;49.680;20.074;2022-08-07T06:55:25;3.27;;;1.35;;
34204;SDS011;20471;49.680;20.074;2022-08-07T06:57:56;4.62;;;1.75;;
34204;SDS011;20471;49.680;20.074;2022-08-07T07:00:32;8.80;;;1.60;;
34204;SDS011;20471;49.680;20.074;2022-08-07T07:03:02;2.80;;;1.40;;
34204;SDS011;20471;49.680;20.074;2022-08-07T07:05:29;3.27;;;1.40;;
34204;SDS011;20471;49.680;20.074;2022-08-07T07:07:56;4.60;;;1.37;;
34204;SDS011;20471;49.680;20.074;2022-08-07T07:10:29;5.78;;;1.57;;
34204;SDS011;20471;49.680;20.074;2022-08-07T07:13:02;2.15;;;1.50;;
34204;SDS011;20471;49.680;20.074;2022-08-07T07:18:23;5.37;;;1.17;;
34204;SDS011;20471;49.680;20.074;2022-08-07T07:21:00;3.37;;;1.50;;
34204;SDS011;20471;49.680;20.074;2022-08-07T07:23:29;2.47;;;1.37;;
34204;SDS011;20471;49.680;20.074;2022-08-07T07:26:01;2.27;;;1.40;;
34204;SDS011;20471;49.680;20.074;2022-08-07T07:31:19;2.47;;;1.40;;
34204;SDS011;20471;49.680;20.074;2022-08-07T07:33:50;4.72;;;1.60;;
34204;SDS011;20471;49.680;20.074;2022-08-07T07:36:21;1.73;;;1.30;;
34204;SDS011;20471;49.680;20.074;2022-08-07T07:38:49;3.58;;;1.50;;
34204;SDS011;20471;49.680;20.074;2022-08-07T07:41:17;3.98;;;1.30;;
34204;SDS011;20471;49.680;20.074;2022-08-07T07:43:47;3.42;;;1.50;;
34204;SDS011;20471;49.680;20.074;2022-08-07T07:46:16;1.98;;;1.40;;
34204;SDS011;20471;49.680;20.074;2022-08-07T07:48:44;2.02;;;1.82;;
34204;SDS011;20471;49.680;20.074;2022-08-07T07:51:13;2.75;;;1.70;;
34204;SDS011;20471;49.680;20.074;2022-08-07T07:53:44;3.27;;;1.70;;
34204;SDS011;20471;49.680;20.074;2022-08-07T07:56:11;3.58;;;1.80;;
34204;SDS011;20471;49.680;20.074;2022-08-07T07:58:39;6.22;;;1.70;;
34204;SDS011;20471;49.680;20.074;2022-08-07T08:01:07;2.72;;;1.82;;
34204;SDS011;20471;49.680;20.074;2022-08-07T08:03:35;3.22;;;1.70;;
34204;SDS011;20471;49.680;20.074;2022-08-07T08:06:05;2.65;;;1.42;;
34204;SDS011;20471;49.680;20.074;2022-08-07T08:08:33;1.60;;;1.50;;
34204;SDS011;20471;49.680;20.074;2022-08-07T08:11:01;2.83;;;1.87;;
34204;SDS011;20471;49.680;20.074;2022-08-07T08:13:30;3.42;;;2.00;;
34204;SDS011;20471;49.680;20.074;2022-08-07T08:15:57;2.85;;;1.60;;
34204;SDS011;20471;49.680;20.074;2022-08-07T08:18:27;3.65;;;1.75;;
34204;SDS011;20471;49.680;20.074;2022-08-07T08:20:55;4.45;;;1.60;;
34204;SDS011;20471;49.680;20.074;2022-08-07T08:26:14;1.85;;;1.60;;
34204;SDS011;20471;49.680;20.074;2022-08-07T08:29:02;2.33;;;1.72;;
34204;SDS011;20471;49.680;20.074;2022-08-07T08:31:32;2.65;;;1.60;;
34204;SDS011;20471;49.680;20.074;2022-08-07T08:34:01;2.25;;;1.60;;
34204;SDS011;20471;49.680;20.074;2022-08-07T08:36:30;2.10;;;1.50;;
34204;SDS011;20471;49.680;20.074;2022-08-07T08:38:59;3.87;;;1.80;;
34204;SDS011;20471;49.680;20.074;2022-08-07T08:41:35;1.98;;;1.40;;
34204;SDS011;20471;49.680;20.074;2022-08-07T08:49:58;2.37;;;2.10;;
34204;SDS011;20471;49.680;20.074;2022-08-07T08:52:54;3.95;;;1.60;;
34204;SDS011;20471;49.680;20.074;2022-08-07T08:55:34;2.70;;;1.52;;
34204;SDS011;20471;49.680;20.074;2022-08-07T08:58:15;4.03;;;1.80;;
34204;SDS011;20471;49.680;20.074;2022-08-07T09:00:51;1.75;;;1.50;;
34204;SDS011;20471;49.680;20.074;2022-08-07T09:03:28;2.42;;;1.60;;
34204;SDS011;20471;49.680;20.074;2022-08-07T09:06:05;2.70;;;1.52;;
34204;SDS011;20471;49.680;20.074;2022-08-07T09:08:46;3.33;;;1.60;;
34204;SDS011;20471;49.680;20.074;2022-08-07T09:11:33;2.80;;;1.80;;
34204;SDS011;20471;49.680;20.074;2022-08-07T09:14:12;5.97;;;1.95;;
34204;SDS011;20471;49.680;20.074;2022-08-07T09:36:08;2.62;;;1.80;;
34204;SDS011;20471;49.680;20.074;2022-08-07T09:42:10;3.87;;;1.92;;
34204;SDS011;20471;49.680;20.074;2022-08-07T09:44:48;7.08;;;2.00;;
34204;SDS011;20471;49.680;20.074;2022-08-07T09:53:31;4.78;;;2.15;;
34204;SDS011;20471;49.680;20.074;2022-08-07T09:56:10;6.22;;;2.25;;
34204;SDS011;20471;49.680;20.074;2022-08-07T09:59:08;5.72;;;2.30;;
34204;SDS011;20471;49.680;20.074;2022-08-07T10:35:25;3.02;;;1.45;;
34204;SDS011;20471;49.680;20.074;2022-08-07T10:38:05;2.12;;;1.50;;
34204;SDS011;20471;49.680;20.074;2022-08-07T10:40:35;3.65;;;1.55;;
34204;SDS011;20471;49.680;20.074;2022-08-07T10:43:21;3.55;;;1.25;;
34204;SDS011;20471;49.680;20.074;2022-08-07T10:46:17;6.28;;;1.62;;
34204;SDS011;20471;49.680;20.074;2022-08-07T10:51:37;1.50;;;1.27;;
34204;SDS011;20471;49.680;20.074;2022-08-07T11:02:27;5.03;;;1.40;;
34204;SDS011;20471;49.680;20.074;2022-08-07T11:14:23;4.45;;;2.00;;
34204;SDS011;20471;49.680;20.074;2022-08-07T11:17:24;4.75;;;1.55;;
34204;SDS011;20471;49.680;20.074;2022-08-07T11:20:07;4.58;;;1.70;;
34204;SDS011;20471;49.680;20.074;2022-08-07T11:25:53;3.33;;;1.80;;
34204;SDS011;20471;49.680;20.074;2022-08-07T11:31:30;4.20;;;1.65;;
34204;SDS011;20471;49.680;20.074;2022-08-07T11:34:35;4.53;;;1.75;;
34204;SDS011;20471;49.680;20.074;2022-08-07T11:43:20;5.65;;;1.27;;
34204;SDS011;20471;49.680;20.074;2022-08-07T11:51:46;5.30;;;1.98;;
34204;SDS011;20471;49.680;20.074;2022-08-07T12:00:19;2.35;;;1.70;;
34204;SDS011;20471;49.680;20.074;2022-08-07T12:11:04;4.00;;;1.40;;
34204;SDS011;20471;49.680;20.074;2022-08-07T12:16:40;2.83;;;1.30;;
34204;SDS011;20471;49.680;20.074;2022-08-07T12:22:12;2.60;;;1.42;;
34204;SDS011;20471;49.680;20.074;2022-08-07T12:28:10;2.98;;;1.35;;
34204;SDS011;20471;49.680;20.074;2022-08-07T12:30:53;4.72;;;1.20;;
34204;SDS011;20471;49.680;20.074;2022-08-07T12:33:24;3.60;;;1.40;;
34204;SDS011;20471;49.680;20.074;2022-08-07T12:35:56;2.52;;;1.37;;
34204;SDS011;20471;49.680;20.074;2022-08-07T12:38:25;3.72;;;1.27;;
34204;SDS011;20471;49.680;20.074;2022-08-07T12:40:53;2.45;;;1.00;;
34204;SDS011;20471;49.680;20.074;2022-08-07T12:43:22;1.75;;;1.20;;
34204;SDS011;20471;49.680;20.074;2022-08-07T12:45:57;3.50;;;1.50;;
34204;SDS011;20471;49.680;20.074;2022-08-07T12:49:04;1.77;;;1.52;;
34204;SDS011;20471;49.680;20.074;2022-08-07T12:51:47;2.92;;;1.20;;
34204;SDS011;20471;49.680;20.074;2022-08-07T12:54:20;2.22;;;1.27;;
34204;SDS011;20471;49.680;20.074;2022-08-07T12:56:53;2.12;;;1.20;;
34204;SDS011;20471;49.680;20.074;2022-08-07T12:59:24;3.55;;;1.20;;
34204;SDS011;20471;49.680;20.074;2022-08-07T13:05:08;3.90;;;1.25;;
34204;SDS011;20471;49.680;20.074;2022-08-07T13:11:04;1.77;;;1.00;;
34204;SDS011;20471;49.680;20.074;2022-08-07T13:13:54;1.27;;;1.05;;
34204;SDS011;20471;49.680;20.074;2022-08-07T13:16:30;1.30;;;1.02;;
34204;SDS011;20471;49.680;20.074;2022-08-07T13:22:23;1.82;;;1.12;;
34204;SDS011;20471;49.680;20.074;2022-08-07T13:25:13;5.50;;;1.20;;
34204;SDS011;20471;49.680;20.074;2022-08-07T13:27:54;2.40;;;1.17;;
34204;SDS011;20471;49.680;20.074;2022-08-07T13:30:29;2.50;;;1.20;;
34204;SDS011;20471;49.680;20.074;2022-08-07T13:33:02;1.65;;;1.07;;
34204;SDS011;20471;49.680;20.074;2022-08-07T13:44:09;3.02;;;1.25;;
34204;SDS011;20471;49.680;20.074;2022-08-07T13:46:38;5.30;;;1.02;;
34204;SDS011;20471;49.680;20.074;2022-08-07T13:49:11;3.08;;;1.30;;
34204;SDS011;20471;49.680;20.074;2022-08-07T13:51:41;1.85;;;1.20;;
34204;SDS011;20471;49.680;20.074;2022-08-07T13:54:12;3.45;;;1.00;;
34204;SDS011;20471;49.680;20.074;2022-08-07T13:56:41;1.52;;;1.07;;
34204;SDS011;20471;49.680;20.074;2022-08-07T13:59:12;3.37;;;1.22;;
34204;SDS011;20471;49.680;20.074;2022-08-07T14:01:52;1.87;;;0.95;;
34204;SDS011;20471;49.680;20.074;2022-08-07T14:07:23;3.17;;;1.22;;
34204;SDS011;20471;49.680;20.074;2022-08-07T14:09:57;1.67;;;1.35;;
34204;SDS011;20471;49.680;20.074;2022-08-07T14:12:31;1.82;;;1.20;;
34204;SDS011;20471;49.680;20.074;2022-08-07T14:15:30;5.47;;;1.30;;
34204;SDS011;20471;49.680;20.074;2022-08-07T14:18:05;2.87;;;1.25;;
34204;SDS011;20471;49.680;20.074;2022-08-07T14:20:36;2.42;;;1.25;;
34204;SDS011;20471;49.680;20.074;2022-08-07T14:25:58;6.17;;;1.30;;
34204;SDS011;20471;49.680;20.074;2022-08-07T14:28:32;3.00;;;1.25;;
34204;SDS011;20471;49.680;20.074;2022-08-07T14:31:02;2.92;;;1.10;;
34204;SDS011;20471;49.680;20.074;2022-08-07T14:33:30;5.92;;;1.57;;
34204;SDS011;20471;49.680;20.074;2022-08-07T14:35:59;2.35;;;1.60;;
34204;SDS011;20471;49.680;20.074;2022-08-07T14:38:28;2.62;;;1.40;;
34204;SDS011;20471;49.680;20.074;2022-08-07T14:40:57;3.77;;;1.17;;
34204;SDS011;20471;49.680;20.074;2022-08-07T14:43:38;3.35;;;1.42;;
34204;SDS011;20471;49.680;20.074;2022-08-07T14:46:07;3.58;;;1.80;;
34204;SDS011;20471;49.680;20.074;2022-08-07T14:48:36;4.83;;;1.62;;
34204;SDS011;20471;49.680;20.074;2022-08-07T14:51:08;3.05;;;1.37;;
34204;SDS011;20471;49.680;20.074;2022-08-07T14:53:40;1.62;;;1.25;;
34204;SDS011;20471;49.680;20.074;2022-08-07T14:56:10;3.17;;;1.22;;
34204;SDS011;20471;49.680;20.074;2022-08-07T14:58:39;2.42;;;1.50;;
34204;SDS011;20471;49.680;20.074;2022-08-07T15:01:10;3.95;;;1.65;;
34204;SDS011;20471;49.680;20.074;2022-08-07T15:03:40;3.67;;;1.80;;
34204;SDS011;20471;49.680;20.074;2022-08-07T15:06:08;1.92;;;1.45;;
34204;SDS011;20471;49.680;20.074;2022-08-07T15:08:38;3.77;;;1.70;;
34204;SDS011;20471;49.680;20.074;2022-08-07T15:11:12;3.05;;;1.75;;
34204;SDS011;20471;49.680;20.074;2022-08-07T15:16:17;7.33;;;1.65;;
34204;SDS011;20471;49.680;20.074;2022-08-07T15:18:55;3.15;;;1.75;;
34204;SDS011;20471;49.680;20.074;2022-08-07T15:21:28;3.27;;;1.77;;
34204;SDS011;20471;49.680;20.074;2022-08-07T15:24:03;2.12;;;1.27;;
34204;SDS011;20471;49.680;20.074;2022-08-07T15:26:35;2.60;;;1.10;;
34204;SDS011;20471;49.680;20.074;2022-08-07T15:29:06;2.35;;;1.12;;
34204;SDS011;20471;49.680;20.074;2022-08-07T15:31:34;2.92;;;1.22;;
34204;SDS011;20471;49.680;20.074;2022-08-07T15:34:02;2.42;;;1.17;;
34204;SDS011;20471;49.680;20.074;2022-08-07T15:36:31;4.37;;;1.32;;
34204;SDS011;20471;49.680;20.074;2022-08-07T15:39:00;2.10;;;0.95;;
34204;SDS011;20471;49.680;20.074;2022-08-07T15:41:29;2.95;;;1.10;;
34204;SDS011;20471;49.680;20.074;2022-08-07T15:44:05;1.93;;;1.20;;
34204;SDS011;20471;49.680;20.074;2022-08-07T15:46:36;4.33;;;1.22;;
34204;SDS011;20471;49.680;20.074;2022-08-07T15:51:39;5.15;;;1.40;;
34204;SDS011;20471;49.680;20.074;2022-08-07T15:54:07;1.37;;;1.00;;
34204;SDS011;20471;49.680;20.074;2022-08-07T15:56:37;1.52;;;1.10;;
34204;SDS011;20471;49.680;20.074;2022-08-07T16:01:44;4.47;;;1.52;;
34204;SDS011;20471;49.680;20.074;2022-08-07T16:04:18;3.92;;;1.30;;
34204;SDS011;20471;49.680;20.074;2022-08-07T16:06:50;1.73;;;1.30;;
34204;SDS011;20471;49.680;20.074;2022-08-07T16:09:21;2.37;;;1.15;;
34204;SDS011;20471;49.680;20.074;2022-08-07T16:21:06;2.95;;;1.27;;
34204;SDS011;20471;49.680;20.074;2022-08-07T16:23:58;3.67;;;1.15;;
34204;SDS011;20471;49.680;20.074;2022-08-07T16:26:57;2.92;;;1.22;;
34204;SDS011;20471;49.680;20.074;2022-08-07T16:29:49;1.77;;;1.00;;
34204;SDS011;20471;49.680;20.074;2022-08-07T16:44:07;2.20;;;1.67;;
34204;SDS011;20471;49.680;20.074;2022-08-07T16:46:44;2.45;;;1.50;;
34204;SDS011;20471;49.680;20.074;2022-08-07T16:55:35;4.40;;;2.10;;
34204;SDS011;20471;49.680;20.074;2022-08-07T16:58:32;7.72;;;1.85;;
34204;SDS011;20471;49.680;20.074;2022-08-07T17:06:55;5.62;;;1.67;;
34204;SDS011;20471;49.680;20.074;2022-08-07T17:09:45;2.90;;;1.40;;
34204;SDS011;20471;49.680;20.074;2022-08-07T17:17:22;4.72;;;1.42;;
34204;SDS011;20471;49.680;20.074;2022-08-07T17:20:30;2.98;;;1.60;;
34204;SDS011;20471;49.680;20.074;2022-08-07T17:23:13;2.67;;;1.60;;
34204;SDS011;20471;49.680;20.074;2022-08-07T17:26:07;4.15;;;1.30;;
34204;SDS011;20471;49.680;20.074;2022-08-07T17:36:56;4.12;;;1.75;;
34204;SDS011;20471;49.680;20.074;2022-08-07T17:39:29;3.12;;;1.42;;
34204;SDS011;20471;49.680;20.074;2022-08-07T17:42:02;3.00;;;1.47;;
34204;SDS011;20471;49.680;20.074;2022-08-07T17:44:41;5.07;;;1.40;;
34204;SDS011;20471;49.680;20.074;2022-08-07T17:47:14;3.70;;;1.25;;
34204;SDS011;20471;49.680;20.074;2022-08-07T17:49:57;1.95;;;1.32;;
34204;SDS011;20471;49.680;20.074;2022-08-07T17:55:07;2.67;;;1.37;;
34204;SDS011;20471;49.680;20.074;2022-08-07T18:00:28;3.27;;;1.60;;
34204;SDS011;20471;49.680;20.074;2022-08-07T18:02:59;5.92;;;1.67;;
34204;SDS011;20471;49.680;20.074;2022-08-07T18:05:51;3.17;;;1.50;;
34204;SDS011;20471;49.680;20.074;2022-08-07T18:11:16;5.33;;;2.62;;
34204;SDS011;20471;49.680;20.074;2022-08-07T18:16:50;3.20;;;2.37;;
34204;SDS011;20471;49.680;20.074;2022-08-07T18:19:24;7.97;;;2.15;;
34204;SDS011;20471;49.680;20.074;2022-08-07T18:22:24;4.87;;;1.67;;
34204;SDS011;20471;49.680;20.074;2022-08-07T18:25:04;4.65;;;2.12;;
34204;SDS011;20471;49.680;20.074;2022-08-07T18:30:29;3.27;;;2.00;;
34204;SDS011;20471;49.680;20.074;2022-08-07T18:33:24;3.05;;;2.15;;
34204;SDS011;20471;49.680;20.074;2022-08-07T18:36:02;4.33;;;2.65;;
34204;SDS011;20471;49.680;20.074;2022-08-07T18:47:10;5.75;;;3.10;;
34204;SDS011;20471;49.680;20.074;2022-08-07T18:50:09;5.33;;;3.40;;
34204;SDS011;20471;49.680;20.074;2022-08-07T18:52:54;7.28;;;3.60;;
34204;SDS011;20471;49.680;20.074;2022-08-07T18:55:56;6.53;;;4.00;;
34204;SDS011;20471;49.680;20.074;2022-08-07T19:07:32;10.68;;;4.35;;
34204;SDS011;20471;49.680;20.074;2022-08-07T19:10:23;6.78;;;3.98;;
34204;SDS011;20471;49.680;20.074;2022-08-07T19:12:58;9.70;;;5.78;;
34204;SDS011;20471;49.680;20.074;2022-08-07T19:15:50;7.42;;;4.67;;
34204;SDS011;20471;49.680;20.074;2022-08-07T19:23:44;7.20;;;3.45;;
34204;SDS011;20471;49.680;20.074;2022-08-07T19:26:15;6.85;;;3.72;;
34204;SDS011;20471;49.680;20.074;2022-08-07T19:28:48;4.72;;;3.15;;
34204;SDS011;20471;49.680;20.074;2022-08-07T19:34:03;7.15;;;3.20;;
34204;SDS011;20471;49.680;20.074;2022-08-07T19:36:39;4.92;;;3.30;;
34204;SDS011;20471;49.680;20.074;2022-08-07T19:39:09;6.45;;;2.90;;